Hlavní strana
METAR-TAF:

METAR-TAF

Letiště :

Wallops Flight Facility

Wallops Island, Virginie, Spojené státy americké

zeměpisná šířka: 37-56-26N, zeměpisná délka: 075-27-47W, výška: 12 m

Aktuální stav počasí

Zpráva byla vytvořena před 18 minutami, v 02:41 UTC
Jižní vítr 10 kt
Teplota 20°C
Vlhkost vzduchu 100%
Tlak 1015 hPa
Viditelnost: 16.1 km
Oblačno až skoro zataženo ve výšce 300 ft

METAR: KWAL 300241Z AUTO 19010KT 10SM BKN003 20/20 A2998 RMK AO2 RAB01E04 P0000 T02000200

Čas: 22:59 (02:59 UTC)


TAF: chybějící

Stav a předpovědi počasí z více než 4 000 letišť (zprávy METAR a TAF).

Červené a žluté tečky na mapě představují dostupné meteorologické stanice.

Když kurzor umístíte na tečku, zobrazí se název stanice.

Pak kliknutím zobrazíte stav a předpověď počasí.

Chcete-li změnit mapu, kliknutím na zelené tlačítko se znaménkem +mapu přiblížíte, kliknutím na zelené tlačítko se znaménkem – mapu oddálíte a kliknutím na zelené šipky přejdete na sousední mapy.


METAR-TAF: